createdAt,value
2017-11-16T00:00:22.237Z,4.15
2017-11-16T00:01:32.034Z,4.15
2017-11-16T00:02:42.097Z,4.21
2017-11-16T00:03:52.167Z,4.26
2017-11-16T00:05:02.020Z,4.14
2017-11-16T00:06:11.822Z,4.14
2017-11-16T00:07:21.902Z,4.18
2017-11-16T00:08:31.435Z,4.15
2017-11-16T00:09:41.236Z,4.18
2017-11-16T00:10:50.871Z,4.21
2017-11-16T00:12:00.936Z,4.14
2017-11-16T00:13:11.041Z,4.22
2017-11-16T00:14:21.092Z,4.28
2017-11-16T00:15:31.167Z,4.21
2017-11-16T00:16:41.024Z,4.2
2017-11-16T00:17:50.827Z,4.18
2017-11-16T00:19:00.649Z,4.18
2017-11-16T00:20:10.711Z,4.22
2017-11-16T00:21:20.515Z,4.22
2017-11-16T00:22:30.602Z,4.17
2017-11-16T00:23:40.652Z,4.17
2017-11-16T00:24:50.714Z,4.11
2017-11-16T00:26:00.781Z,4.18
2017-11-16T00:27:10.572Z,4.12
2017-11-16T00:28:20.163Z,4.1
2017-11-16T00:29:29.967Z,4.11
2017-11-16T00:30:39.776Z,4.11
2017-11-16T00:31:49.864Z,4.12
2017-11-16T00:32:59.937Z,4.11
2017-11-16T00:34:10.064Z,4.1
2017-11-16T00:35:20.147Z,4.17
2017-11-16T00:36:30.215Z,4.07
2017-11-16T00:37:40.275Z,4.1
2017-11-16T00:38:51.641Z,4.03
2017-11-16T00:40:02.415Z,3.93
2017-11-16T00:41:11.698Z,3.96
2017-11-16T00:42:20.982Z,3.86
2017-11-16T00:43:30.808Z,3.86
2017-11-16T00:44:40.868Z,3.81
2017-11-16T00:45:50.930Z,3.78
2017-11-16T00:47:00.987Z,3.84
2017-11-16T00:48:10.789Z,3.82
2017-11-16T00:49:20.596Z,3.82
2017-11-16T00:50:30.397Z,3.79
2017-11-16T00:51:39.938Z,3.89
2017-11-16T00:52:49.483Z,3.81
2017-11-16T00:53:59.560Z,3.82
2017-11-16T00:55:09.370Z,3.84
2017-11-16T00:56:20.165Z,3.92
2017-11-16T00:57:30.291Z,3.85
2017-11-16T00:58:40.105Z,3.85
2017-11-16T00:59:49.911Z,3.89
2017-11-16T01:00:59.704Z,3.93
2017-11-16T01:02:09.511Z,3.96
2017-11-16T01:03:19.647Z,3.89
2017-11-16T01:04:29.458Z,3.9
2017-11-16T01:05:39.531Z,3.85
2017-11-16T01:06:49.337Z,3.86
2017-11-16T01:07:58.889Z,3.94
2017-11-16T01:09:09.007Z,4.02
2017-11-16T01:10:18.792Z,3.86
2017-11-16T01:11:28.603Z,3.97
2017-11-16T01:12:38.678Z,3.9
2017-11-16T01:13:48.209Z,3.94
2017-11-16T01:14:58.328Z,3.9
2017-11-16T01:16:08.159Z,3.89
2017-11-16T01:17:17.979Z,3.89
2017-11-16T01:18:28.037Z,3.85
2017-11-16T01:19:37.871Z,3.9
2017-11-16T01:20:48.008Z,3.86
2017-11-16T01:21:58.106Z,3.86
2017-11-16T01:23:07.920Z,3.86
2017-11-16T01:24:18.231Z,3.85
2017-11-16T01:25:28.305Z,3.85
2017-11-16T01:26:38.433Z,3.89
2017-11-16T01:27:48.333Z,3.96
2017-11-16T01:28:59.476Z,3.96
2017-11-16T01:30:09.288Z,3.89
2017-11-16T01:31:19.094Z,3.86
2017-11-16T01:32:28.901Z,3.86
2017-11-16T01:33:38.985Z,3.79
2017-11-16T01:34:49.055Z,3.9
2017-11-16T01:35:58.586Z,3.82
2017-11-16T01:37:07.857Z,3.84
2017-11-16T01:38:17.696Z,3.86
2017-11-16T01:39:27.769Z,3.84
2017-11-16T01:40:37.565Z,3.89
2017-11-16T01:41:47.629Z,3.85
2017-11-16T01:42:57.696Z,3.79
2017-11-16T01:44:07.224Z,3.84
2017-11-16T01:45:17.304Z,3.86
2017-11-16T01:46:27.374Z,3.86
2017-11-16T01:47:37.441Z,3.92
2017-11-16T01:48:47.501Z,3.89
2017-11-16T01:49:57.570Z,3.81
2017-11-16T01:51:07.648Z,3.9
2017-11-16T01:52:17.194Z,3.82
2017-11-16T01:53:27.273Z,3.89
2017-11-16T01:54:37.345Z,3.84
2017-11-16T01:55:47.137Z,3.92
2017-11-16T01:56:57.199Z,3.82
2017-11-16T01:58:07.261Z,3.84
2017-11-16T01:59:17.326Z,3.86
2017-11-16T02:00:27.980Z,3.71
2017-11-16T02:01:38.706Z,3.85
2017-11-16T02:02:49.493Z,3.72
2017-11-16T02:03:59.583Z,3.72
2017-11-16T02:05:09.389Z,3.76
2017-11-16T02:06:19.463Z,3.79
2017-11-16T02:07:29.272Z,3.81
2017-11-16T02:08:39.327Z,3.78
2017-11-16T02:09:49.129Z,3.64
2017-11-16T02:10:59.194Z,3.72
2017-11-16T02:12:09.610Z,3.67
2017-11-16T02:13:19.464Z,3.69
2017-11-16T02:14:29.284Z,3.72
2017-11-16T02:15:38.815Z,3.71
2017-11-16T02:16:48.358Z,3.72
2017-11-16T02:17:58.428Z,3.69
2017-11-16T02:19:08.545Z,3.72
2017-11-16T02:20:18.079Z,3.72
2017-11-16T02:21:27.864Z,3.84
2017-11-16T02:22:37.943Z,3.84
2017-11-16T02:23:47.749Z,3.82
2017-11-16T02:24:57.606Z,3.92
2017-11-16T02:26:07.678Z,3.9
2017-11-16T02:27:17.479Z,3.89
2017-11-16T02:28:27.551Z,3.85
2017-11-16T02:29:37.652Z,3.97
2017-11-16T02:30:47.508Z,3.96
2017-11-16T02:31:57.304Z,4
2017-11-16T02:33:08.867Z,3.96
2017-11-16T02:34:19.585Z,3.97
2017-11-16T02:35:30.282Z,3.99
2017-11-16T02:36:40.365Z,4.1
2017-11-16T02:37:50.446Z,4.04
2017-11-16T02:39:00.240Z,4.12
2017-11-16T02:40:09.518Z,4.2
2017-11-16T02:41:19.605Z,4.2
2017-11-16T02:42:29.412Z,4.3
2017-11-16T02:43:39.494Z,4.22
2017-11-16T02:44:49.576Z,4.22
2017-11-16T02:45:59.122Z,4.42
2017-11-16T02:47:08.929Z,4.29
2017-11-16T02:48:18.998Z,4.32
2017-11-16T02:49:29.085Z,4.32
2017-11-16T02:50:38.906Z,4.48
2017-11-16T02:51:48.962Z,4.39
2017-11-16T02:52:58.768Z,4.51
2017-11-16T02:54:08.579Z,4.48
2017-11-16T02:55:18.657Z,4.53
2017-11-16T02:56:28.720Z,4.65
2017-11-16T02:57:38.804Z,4.68
2017-11-16T02:58:48.597Z,4.69
2017-11-16T02:59:58.670Z,4.78
2017-11-16T03:01:08.744Z,4.84
2017-11-16T03:02:18.812Z,4.98
2017-11-16T03:33:52.692Z,1.04
2017-11-16T03:35:02.940Z,0.97
2017-11-16T03:36:14.248Z,0.85
2017-11-16T03:37:24.979Z,0.94
2017-11-16T03:38:35.736Z,0.96
2017-11-16T03:39:45.840Z,1.07
2017-11-16T03:40:55.909Z,1.21
2017-11-16T03:42:05.706Z,1.3
2017-11-16T03:43:15.787Z,1.5
2017-11-16T03:44:25.852Z,1.65
2017-11-16T03:45:35.708Z,1.83
2017-11-16T03:46:45.529Z,1.79
2017-11-16T03:47:55.326Z,2.02
2017-11-16T03:49:05.419Z,2.16
2017-11-16T03:50:15.490Z,2.26
2017-11-16T03:51:25.370Z,2.29
2017-11-16T03:52:35.447Z,2.41
2017-11-16T03:53:45.500Z,2.49
2017-11-16T03:54:55.306Z,2.6
2017-11-16T03:56:05.373Z,2.73
2017-11-16T03:57:15.502Z,2.73
2017-11-16T03:58:25.559Z,2.7
2017-11-16T03:59:35.355Z,2.87
2017-11-16T04:00:45.160Z,2.91
2017-11-16T04:01:55.220Z,2.96
2017-11-16T04:03:05.306Z,3.09
2017-11-16T04:04:14.851Z,3.09
2017-11-16T04:05:24.120Z,3.17
2017-11-16T04:06:34.181Z,3.24
2017-11-16T04:07:44.510Z,3.24
2017-11-16T04:08:56.211Z,3.39
2017-11-16T04:10:06.274Z,3.27
2017-11-16T04:11:16.200Z,3.35
2017-11-16T04:12:25.756Z,3.39
2017-11-16T04:13:35.836Z,3.35
2017-11-16T04:14:45.949Z,3.4
2017-11-16T04:15:56.064Z,3.48
2017-11-16T04:17:06.135Z,3.51
2017-11-16T04:18:16.212Z,3.58
2017-11-16T04:19:26.267Z,3.56
2017-11-16T04:20:36.327Z,3.6
2017-11-16T04:21:46.133Z,3.56
2017-11-16T04:22:55.949Z,3.53
2017-11-16T04:24:05.759Z,3.61
2017-11-16T04:25:15.303Z,3.72
2017-11-16T04:26:25.463Z,3.74
2017-11-16T04:27:35.260Z,3.76
2017-11-16T04:28:45.074Z,3.82
2017-11-16T04:29:55.149Z,3.86
2017-11-16T04:31:04.970Z,3.79
2017-11-16T04:32:14.828Z,4.02
2017-11-16T04:33:24.640Z,4
2017-11-16T04:34:34.449Z,4.08
2017-11-16T04:35:44.255Z,4.17
2017-11-16T04:36:54.325Z,4.22
2017-11-16T04:38:04.185Z,4.2
2017-11-16T04:39:15.204Z,4.21
2017-11-16T04:40:25.025Z,4.28
2017-11-16T04:41:35.086Z,4.3
2017-11-16T04:42:45.161Z,4.3
2017-11-16T04:43:54.762Z,4.36
2017-11-16T04:45:04.834Z,4.36
2017-11-16T04:46:14.640Z,4.44
2017-11-16T04:47:24.448Z,4.46
2017-11-16T04:48:33.717Z,4.53
2017-11-16T04:49:43.893Z,4.54
2017-11-16T04:50:53.714Z,4.66
2017-11-16T04:52:03.796Z,4.71
2017-11-16T04:53:13.590Z,4.69
2017-11-16T04:54:23.681Z,4.75
2017-11-16T04:55:33.761Z,4.83
2017-11-16T04:56:43.854Z,4.83
2017-11-16T04:57:53.663Z,4.85
2017-11-16T04:59:03.762Z,4.79
2017-11-16T05:00:13.569Z,4.91
2017-11-16T05:01:23.706Z,4.88
2017-11-16T05:02:33.509Z,4.85
2017-11-16T05:03:43.622Z,4.87
2017-11-16T05:04:53.697Z,4.78
2017-11-16T05:06:03.751Z,4.85
2017-11-16T05:07:13.546Z,4.83
2017-11-16T05:08:23.632Z,4.88
2017-11-16T05:09:33.712Z,4.92
2017-11-16T05:10:43.801Z,4.87
2017-11-16T05:11:53.918Z,4.79
2017-11-16T05:13:04.029Z,4.84
2017-11-16T05:14:14.114Z,4.87
2017-11-16T05:15:24.185Z,4.87
2017-11-16T05:16:33.998Z,4.84
2017-11-16T05:17:44.074Z,4.88
2017-11-16T05:18:54.194Z,4.84
2017-11-16T05:20:04.004Z,4.85
2017-11-16T05:21:14.062Z,4.92
2017-11-16T05:22:24.159Z,4.97
2017-11-16T05:23:34.267Z,4.95
2017-11-16T05:24:44.393Z,4.98
2017-11-16T05:25:54.486Z,5.09
2017-11-16T05:27:04.304Z,5.12
2017-11-16T05:28:14.382Z,5
2017-11-16T05:29:24.453Z,5.05
2017-11-16T05:30:34.264Z,5.06
2017-11-16T05:31:44.365Z,5.05
2017-11-16T05:32:54.456Z,5.06
2017-11-16T05:34:03.995Z,5.02
2017-11-16T05:35:13.788Z,5.09
2017-11-16T05:36:23.600Z,5
2017-11-16T05:37:33.668Z,5.05
2017-11-16T05:38:43.469Z,5.06
2017-11-16T05:39:53.532Z,5.03
2017-11-16T05:41:03.347Z,5.08
2017-11-16T05:42:13.469Z,5.02
2017-11-16T05:43:23.274Z,5
2017-11-16T05:44:33.095Z,4.95
2017-11-16T05:45:42.914Z,4.95
2017-11-16T05:46:52.989Z,4.97
2017-11-16T05:48:03.095Z,4.92
2017-11-16T05:49:12.931Z,4.95
2017-11-16T05:50:23.008Z,5.02
2017-11-16T05:51:33.083Z,5
2017-11-16T05:52:43.155Z,4.97
2017-11-16T05:53:53.020Z,5.03
2017-11-16T05:55:02.567Z,4.94
2017-11-16T05:56:12.628Z,4.94
2017-11-16T05:57:22.431Z,4.97
2017-11-16T05:58:32.236Z,5
2017-11-16T05:59:42.040Z,4.9
2017-11-16T06:00:51.890Z,4.83
2017-11-16T06:02:01.665Z,4.98
2017-11-16T06:03:11.733Z,4.94
2017-11-16T06:04:21.279Z,4.91
2017-11-16T06:05:31.392Z,4.9
2017-11-16T06:06:41.468Z,4.84
2017-11-16T06:07:51.277Z,4.95
2017-11-16T06:09:01.349Z,4.88
2017-11-16T06:10:11.834Z,4.91
2017-11-16T06:11:21.716Z,4.88
2017-11-16T06:12:31.799Z,4.92
2017-11-16T06:13:41.884Z,4.85
2017-11-16T06:14:51.957Z,4.85
2017-11-16T06:16:02.024Z,4.85
2017-11-16T06:17:11.882Z,4.85
2017-11-16T06:18:21.983Z,4.95
2017-11-16T06:19:32.054Z,4.95
2017-11-16T06:20:42.159Z,5
2017-11-16T06:21:51.707Z,4.9
2017-11-16T06:23:01.568Z,5
2017-11-16T06:24:11.377Z,5.06
2017-11-16T06:25:21.202Z,5
2017-11-16T06:26:29.935Z,4.92
2017-11-16T06:27:40.026Z,4.97
2017-11-16T06:28:49.832Z,4.97
2017-11-16T06:29:59.638Z,4.91
2017-11-16T06:31:09.462Z,4.91
2017-11-16T06:32:19.547Z,4.94
2017-11-16T06:33:29.629Z,5.08
2017-11-16T06:34:39.222Z,5.06
2017-11-16T06:35:49.248Z,5.09
2017-11-16T06:36:59.322Z,5.05
2017-11-16T06:38:09.112Z,5.21
2017-11-16T06:39:18.398Z,5.31
2017-11-16T06:40:27.980Z,5.31
2017-11-16T06:41:37.514Z,5.36
2017-11-16T06:42:47.045Z,5.33
2017-11-16T06:43:57.121Z,5.28
2017-11-16T06:45:06.678Z,5.31
2017-11-16T06:46:16.546Z,5.39
2017-11-16T06:47:26.097Z,5.37
2017-11-16T06:48:35.898Z,5.39
2017-11-16T06:49:45.978Z,5.33
2017-11-16T06:50:56.040Z,5.33
2017-11-16T06:52:06.120Z,5.34
2017-11-16T06:53:15.939Z,5.33
2017-11-16T06:54:25.756Z,5.36
2017-11-16T06:55:35.851Z,5.41
2017-11-16T06:56:45.930Z,5.31
2017-11-16T06:57:56.004Z,5.24
2017-11-16T06:59:06.085Z,5.37
2017-11-16T07:00:16.166Z,5.34
2017-11-16T07:01:26.247Z,5.39
2017-11-16T07:02:36.038Z,5.36
2017-11-16T07:03:45.582Z,5.31
2017-11-16T07:04:55.395Z,5.33
2017-11-16T07:06:05.222Z,5.28
2017-11-16T07:07:15.306Z,5.28
2017-11-16T07:08:25.377Z,5.23
2017-11-16T07:09:35.243Z,5.18
2017-11-16T07:10:45.314Z,5.23
2017-11-16T07:11:55.421Z,5.23
2017-11-16T07:13:05.498Z,5.2
2017-11-16T07:14:15.557Z,5.26
2017-11-16T07:15:25.104Z,5.28
2017-11-16T07:16:34.646Z,5.26
2017-11-16T07:17:44.478Z,5.3
2017-11-16T07:18:54.293Z,5.33
2017-11-16T07:20:04.386Z,5.41
2017-11-16T07:21:14.195Z,5.33
2017-11-16T07:22:24.278Z,5.37
2017-11-16T07:23:34.365Z,5.34
2017-11-16T07:24:44.460Z,5.36
2017-11-16T07:25:54.538Z,5.39
2017-11-16T07:27:04.667Z,5.45
2017-11-16T07:28:14.750Z,5.34
2017-11-16T07:29:24.558Z,5.45
2017-11-16T07:30:35.116Z,5.39
2017-11-16T07:31:45.180Z,5.44
2017-11-16T07:32:55.261Z,5.45
2017-11-16T07:34:05.344Z,5.52
2017-11-16T07:35:14.876Z,5.59
2017-11-16T07:36:24.665Z,5.57
2017-11-16T07:37:34.751Z,5.59
2017-11-16T07:38:44.828Z,5.57
2017-11-16T07:39:54.624Z,5.63
2017-11-16T07:41:04.720Z,5.67
2017-11-16T07:42:14.788Z,5.63
2017-11-16T07:43:24.606Z,5.78
2017-11-16T07:44:34.457Z,5.77
2017-11-16T07:45:44.003Z,5.82
2017-11-16T07:46:53.807Z,5.84
2017-11-16T07:48:03.860Z,5.92
2017-11-16T07:49:13.927Z,5.78
2017-11-16T07:50:23.732Z,5.82
2017-11-16T07:51:33.793Z,5.85
2017-11-16T07:52:43.605Z,5.88
2017-11-16T07:53:53.396Z,5.89
2017-11-16T07:55:03.452Z,5.92
2017-11-16T07:56:13.538Z,5.95
2017-11-16T07:57:23.646Z,6
2017-11-16T07:58:33.455Z,6.09
2017-11-16T07:59:43.001Z,6.17
2017-11-16T08:00:52.801Z,6.1
2017-11-16T08:02:02.936Z,6.15
2017-11-16T08:03:12.731Z,6.25
2017-11-16T08:04:22.826Z,6.28
2017-11-16T08:05:32.360Z,6.34
2017-11-16T08:06:42.429Z,6.39
2017-11-16T08:07:52.247Z,6.43
2017-11-16T08:09:02.053Z,6.43
2017-11-16T08:10:12.132Z,6.43
2017-11-16T08:11:22.251Z,6.52
2017-11-16T08:12:31.813Z,6.6
2017-11-16T08:13:41.686Z,6.61
2017-11-16T08:14:51.518Z,6.52
2017-11-16T08:16:01.612Z,6.68
2017-11-16T08:17:11.710Z,6.65
2017-11-16T08:18:21.516Z,6.68
2017-11-16T08:19:31.472Z,6.67
2017-11-16T08:20:41.555Z,6.78
2017-11-16T08:21:51.095Z,6.82
2017-11-16T08:23:00.895Z,6.8
2017-11-16T08:24:10.688Z,6.79
2017-11-16T08:25:20.541Z,6.85
2017-11-16T08:26:30.617Z,6.82
2017-11-16T08:27:40.696Z,6.94
2017-11-16T08:28:50.237Z,7
2017-11-16T08:29:59.517Z,7.01
2017-11-16T08:31:09.637Z,7.05
2017-11-16T08:32:19.708Z,7.05
2017-11-16T08:33:29.516Z,7.09
2017-11-16T08:34:39.582Z,7.12
2017-11-16T08:35:49.668Z,7.15
2017-11-16T08:36:59.802Z,7.22
2017-11-16T08:38:09.899Z,7.19
2017-11-16T08:39:19.736Z,7.27
2017-11-16T08:40:29.808Z,7.39
2017-11-16T08:41:39.939Z,7.48
2017-11-16T08:42:50.041Z,7.52
2017-11-16T08:44:00.117Z,7.54
2017-11-16T08:45:10.219Z,7.63
2017-11-16T08:46:20.017Z,7.58
2017-11-16T08:47:29.293Z,7.7
2017-11-16T08:48:39.397Z,7.68
2017-11-16T08:49:49.208Z,7.75
2017-11-16T08:50:59.300Z,7.82
2017-11-16T08:52:09.444Z,7.89
2017-11-16T08:53:19.252Z,7.95
2017-11-16T08:54:29.387Z,7.95
2017-11-16T08:55:39.197Z,7.99
2017-11-16T08:56:49.037Z,8.04
2017-11-16T08:57:58.571Z,8.06
2017-11-16T08:59:08.399Z,8.07
2017-11-16T09:00:18.482Z,8.11
2017-11-16T09:01:28.296Z,8.1
2017-11-16T09:02:38.100Z,8.13
2017-11-16T09:03:48.185Z,8.22
2017-11-16T09:04:58.253Z,8.19
2017-11-16T09:06:07.834Z,8.29
2017-11-16T09:07:17.655Z,8.22
2017-11-16T09:08:27.742Z,8.25
2017-11-16T09:09:37.832Z,8.28
2017-11-16T09:10:48.103Z,8.34
2017-11-16T09:11:58.232Z,8.28
2017-11-16T09:13:08.334Z,8.35
2017-11-16T09:14:18.438Z,8.25
2017-11-16T09:15:27.989Z,8.28
2017-11-16T09:16:38.065Z,8.31
2017-11-16T09:17:48.136Z,8.43
2017-11-16T09:18:57.979Z,8.5
2017-11-16T09:20:08.046Z,8.44
2017-11-16T09:21:18.155Z,8.49
2017-11-16T09:22:27.959Z,8.62
2017-11-16T09:23:38.047Z,8.65
2017-11-16T09:24:48.120Z,8.68
2017-11-16T09:25:57.959Z,8.69
2017-11-16T09:27:07.772Z,8.72
2017-11-16T09:28:17.873Z,8.8
2017-11-16T09:29:27.429Z,8.8
2017-11-16T09:30:37.526Z,8.8
2017-11-16T09:31:47.621Z,8.89
2017-11-16T09:32:57.792Z,9.04
2017-11-16T09:34:07.597Z,9.08
2017-11-16T09:35:17.714Z,9.12
2017-11-16T09:36:27.828Z,9.11
2017-11-16T09:37:37.917Z,9.11
2017-11-16T09:38:48.863Z,9.05
2017-11-16T09:39:59.462Z,9.05
2017-11-16T09:41:09.319Z,9.14
2017-11-16T09:42:19.128Z,9.11
2017-11-16T09:43:28.947Z,9.19
2017-11-16T09:44:38.768Z,9.32
2017-11-16T09:45:48.606Z,9.45
2017-11-16T09:46:58.454Z,9.56
2017-11-16T09:48:08.280Z,9.6
2017-11-16T09:49:18.097Z,9.8
2017-11-16T09:50:28.204Z,9.88
2017-11-16T09:51:38.277Z,9.85
2017-11-16T09:52:48.359Z,9.85
2017-11-16T09:53:58.488Z,9.77
2017-11-16T09:55:08.318Z,9.72
2017-11-16T09:56:18.144Z,9.66
2017-11-16T09:57:27.985Z,9.63
2017-11-16T09:58:38.183Z,9.62
2017-11-16T09:59:48.282Z,9.59
2017-11-16T10:00:57.929Z,9.5
2017-11-16T10:02:08.021Z,9.48
2017-11-16T10:03:18.099Z,9.42
2017-11-16T10:04:27.654Z,9.37
2017-11-16T10:05:37.463Z,9.38
2017-11-16T10:06:47.550Z,9.41
2017-11-16T10:07:57.637Z,9.37
2017-11-16T10:09:07.729Z,9.27
2017-11-16T10:10:17.860Z,9.3
2017-11-16T10:11:27.675Z,9.3
2017-11-16T10:12:37.805Z,9.44
2017-11-16T10:13:47.919Z,9.45
2017-11-16T10:14:57.763Z,9.48
2017-11-16T10:16:07.922Z,9.53
2017-11-16T10:17:18.020Z,9.5
2017-11-16T10:18:28.185Z,9.62
2017-11-16T10:19:38.418Z,9.63
2017-11-16T10:20:48.503Z,9.78
2017-11-16T10:21:58.619Z,9.81
2017-11-16T10:23:08.707Z,9.78
2017-11-16T10:24:18.796Z,9.82
2017-11-16T10:25:28.865Z,9.89
2017-11-16T10:26:38.961Z,9.99
2017-11-16T10:27:49.092Z,10.14
2017-11-16T10:28:59.216Z,10.18
2017-11-16T10:30:08.776Z,10.21
2017-11-16T10:31:18.596Z,10.05
2017-11-16T10:32:28.405Z,10.03
2017-11-16T10:33:38.312Z,9.82
2017-11-16T10:34:49.376Z,9.81
2017-11-16T10:35:58.694Z,9.88
2017-11-16T10:37:08.835Z,9.85
2017-11-16T10:38:18.644Z,9.85
2017-11-16T10:39:28.785Z,9.88
2017-11-16T10:40:38.882Z,9.85
2017-11-16T10:41:50.073Z,9.81
2017-11-16T10:42:59.897Z,9.93
2017-11-16T10:44:09.449Z,9.93
2017-11-16T10:45:19.585Z,9.93
2017-11-16T10:46:29.386Z,10.11
2017-11-16T10:47:39.211Z,10.13
2017-11-16T10:48:49.316Z,10.18
2017-11-16T10:49:59.422Z,10.26
2017-11-16T10:51:09.249Z,10.36
2017-11-16T10:52:19.111Z,10.35
2017-11-16T10:53:29.208Z,10.41
2017-11-16T10:54:38.749Z,10.36
2017-11-16T10:55:48.567Z,10.51
2017-11-16T10:56:58.398Z,10.47
2017-11-16T10:58:08.500Z,10.54
2017-11-16T10:59:18.676Z,10.54
2017-11-16T11:00:28.767Z,10.55
2017-11-16T11:01:38.586Z,10.51
2017-11-16T11:02:48.419Z,10.58
2017-11-16T11:03:58.533Z,10.65
2017-11-16T11:05:08.359Z,10.65
2017-11-16T11:06:18.167Z,10.66
2017-11-16T11:07:28.253Z,10.79
2017-11-16T11:08:38.123Z,10.8
2017-11-16T11:09:47.692Z,10.91
2017-11-16T11:10:57.794Z,10.88
2017-11-16T11:12:07.340Z,10.77
2017-11-16T11:13:17.441Z,10.79
2017-11-16T11:14:27.517Z,10.79
2017-11-16T11:15:37.065Z,10.75
2017-11-16T11:16:46.875Z,10.85
2017-11-16T11:17:56.988Z,10.77
2017-11-16T11:19:06.536Z,10.72
2017-11-16T11:20:16.597Z,10.67
2017-11-16T11:21:26.697Z,10.63
2017-11-16T11:22:36.501Z,10.75
2017-11-16T11:23:46.330Z,10.65
2017-11-16T11:24:55.903Z,10.69
2017-11-16T11:26:06.073Z,10.65
2017-11-16T11:27:16.177Z,10.54
2017-11-16T11:28:25.979Z,10.59
2017-11-16T11:29:35.793Z,10.58
2017-11-16T11:30:45.901Z,10.69
2017-11-16T11:31:56.038Z,10.73
2017-11-16T11:33:05.856Z,10.77
2017-11-16T11:34:15.950Z,10.9
2017-11-16T11:35:26.029Z,10.87
2017-11-16T11:36:36.097Z,10.84
2017-11-16T11:37:45.973Z,10.91
2017-11-16T11:38:56.038Z,11.06
2017-11-16T11:40:05.877Z,11.06
2017-11-16T11:41:15.968Z,11
2017-11-16T11:42:25.534Z,11.03
2017-11-16T11:43:35.624Z,11.05
2017-11-16T11:44:45.431Z,10.95
2017-11-16T11:45:55.538Z,10.9
2017-11-16T11:47:05.166Z,10.84
2017-11-16T11:48:14.999Z,10.83
2017-11-16T11:49:24.880Z,10.83
2017-11-16T11:50:34.961Z,10.8
2017-11-16T11:51:44.765Z,10.77
2017-11-16T11:52:54.874Z,10.8
2017-11-16T11:54:04.959Z,10.7
2017-11-16T11:55:14.823Z,10.75
2017-11-16T11:56:24.913Z,10.76
2017-11-16T11:57:34.454Z,10.83
2017-11-16T11:58:44.288Z,10.87
2017-11-16T11:59:54.386Z,10.87
2017-11-16T12:01:04.467Z,10.91
2017-11-16T12:02:14.282Z,10.84
2017-11-16T12:03:24.101Z,10.88
2017-11-16T12:04:34.171Z,10.85
2017-11-16T12:05:44.241Z,11
2017-11-16T12:06:54.385Z,10.95
2017-11-16T12:08:04.468Z,11.06
2017-11-16T12:09:14.285Z,11.12
2017-11-16T12:10:24.379Z,11.24
2017-11-16T12:11:34.482Z,11.16
2017-11-16T12:12:44.350Z,11.16
2017-11-16T12:13:54.474Z,11.16
2017-11-16T12:15:04.565Z,11.05
2017-11-16T12:16:14.657Z,11.06
2017-11-16T12:17:24.449Z,11.03
2017-11-16T12:18:34.345Z,11.16
2017-11-16T12:19:44.445Z,11.1
2017-11-16T12:20:54.554Z,11.1
2017-11-16T12:22:04.377Z,11.2
2017-11-16T12:23:14.461Z,11.12
2017-11-16T12:24:24.328Z,11.06
2017-11-16T12:25:35.293Z,11.2
2017-11-16T12:26:45.400Z,11.16
2017-11-16T12:27:56.280Z,11.05
2017-11-16T12:29:06.381Z,11.06
2017-11-16T12:30:16.462Z,11.02
2017-11-16T12:31:26.330Z,11.03
2017-11-16T12:32:36.175Z,11.05
2017-11-16T12:33:46.273Z,11.12
2017-11-16T12:34:56.462Z,11.1
2017-11-16T12:36:06.534Z,11.34
2017-11-16T12:37:15.878Z,11.35
2017-11-16T12:38:25.719Z,11.42
2017-11-16T12:39:35.840Z,11.24
2017-11-16T12:40:46.062Z,11.13
2017-11-16T12:41:56.161Z,11.06
2017-11-16T12:43:06.286Z,10.84
2017-11-16T12:44:16.365Z,11.08
2017-11-16T12:45:26.464Z,11.1
2017-11-16T12:46:36.575Z,11.06
2017-11-16T12:47:46.652Z,11.18
2017-11-16T12:48:56.465Z,11.3
2017-11-16T12:50:06.333Z,11.31
2017-11-16T12:51:16.474Z,11.16
2017-11-16T12:52:26.300Z,10.92
2017-11-16T12:53:36.141Z,10.83
2017-11-16T12:54:45.960Z,10.83
2017-11-16T12:55:55.781Z,10.76
2017-11-16T12:57:05.335Z,10.75
2017-11-16T12:58:15.408Z,10.75
2017-11-16T12:59:25.528Z,10.65
2017-11-16T13:00:35.649Z,10.66
2017-11-16T13:01:45.717Z,10.57
2017-11-16T13:02:55.516Z,10.35
2017-11-16T13:04:05.619Z,10.17
2017-11-16T13:05:15.693Z,10
2017-11-16T13:06:27.069Z,9.99
2017-11-16T13:07:37.151Z,9.98
2017-11-16T13:08:46.975Z,9.95
2017-11-16T13:09:57.076Z,9.84
2017-11-16T13:11:06.609Z,9.82
2017-11-16T13:12:16.175Z,9.84
2017-11-16T13:13:26.279Z,9.88
2017-11-16T13:14:36.105Z,9.88
2017-11-16T13:15:46.196Z,9.78
2017-11-16T13:16:56.299Z,9.75
2017-11-16T13:18:06.433Z,9.85
2017-11-16T13:19:16.541Z,9.89
2017-11-16T13:20:26.369Z,9.84
2017-11-16T13:21:36.154Z,10.02
2017-11-16T13:22:46.492Z,9.93
2017-11-16T13:23:56.710Z,9.99
2017-11-16T13:25:05.995Z,10.07
2017-11-16T13:26:16.070Z,10.07
2017-11-16T13:27:25.910Z,10.08
2017-11-16T13:28:35.759Z,9.99
2017-11-16T13:29:45.903Z,10.1
2017-11-16T13:30:55.733Z,10.07
2017-11-16T13:32:05.026Z,9.96
2017-11-16T13:33:14.864Z,10.1
2017-11-16T13:34:24.991Z,10.02
2017-11-16T13:35:35.096Z,9.99
2017-11-16T13:36:45.184Z,9.96
2017-11-16T13:37:55.264Z,10.03
2017-11-16T13:39:05.129Z,10.1
2017-11-16T13:40:14.982Z,10.23
2017-11-16T13:41:25.123Z,10.31
2017-11-16T13:42:34.950Z,10.39
2017-11-16T13:43:45.056Z,10.39
2017-11-16T13:44:55.175Z,10.36
2017-11-16T13:46:05.261Z,10.44
2017-11-16T13:47:15.090Z,10.42
2017-11-16T13:48:24.652Z,10.26
2017-11-16T13:49:34.454Z,10.23
2017-11-16T13:50:44.542Z,10.13
2017-11-16T13:51:54.369Z,10.05
2017-11-16T13:53:03.908Z,9.99
2017-11-16T13:54:13.734Z,9.95
2017-11-16T13:55:23.814Z,9.88
2017-11-16T13:56:33.684Z,9.84
2017-11-16T13:57:43.775Z,9.84
2017-11-16T13:58:53.777Z,9.8
2017-11-16T14:00:04.076Z,9.77
2017-11-16T14:01:13.370Z,9.72
2017-11-16T14:02:23.213Z,9.63
2017-11-16T14:03:33.339Z,9.66
2017-11-16T14:04:43.210Z,9.64
2017-11-16T14:05:53.296Z,9.62
2017-11-16T14:07:03.197Z,9.59
2017-11-16T14:08:13.304Z,9.57
2017-11-16T14:09:23.131Z,9.64
2017-11-16T14:10:33.286Z,9.62
2017-11-16T14:11:43.125Z,9.6
2017-11-16T14:12:53.214Z,9.55
2017-11-16T14:14:03.039Z,9.56
2017-11-16T14:15:13.138Z,9.6
2017-11-16T14:16:22.748Z,9.62
2017-11-16T14:17:32.867Z,9.67
2017-11-16T14:18:43.005Z,9.6
2017-11-16T14:19:53.114Z,9.56
2017-11-16T14:21:02.664Z,9.59
2017-11-16T14:22:13.369Z,9.57
2017-11-16T14:23:23.188Z,9.55
2017-11-16T14:24:33.008Z,9.56
2017-11-16T14:25:42.826Z,9.56
2017-11-16T14:26:52.926Z,9.59
2017-11-16T14:28:03.017Z,9.59
2017-11-16T14:29:12.564Z,9.48
2017-11-16T14:30:22.647Z,9.47
2017-11-16T14:31:32.748Z,9.47
2017-11-16T14:32:42.587Z,9.52
2017-11-16T14:33:52.223Z,9.45
2017-11-16T14:35:02.312Z,9.42
2017-11-16T14:36:12.440Z,9.42
2017-11-16T14:37:22.270Z,9.39
2017-11-16T14:38:32.597Z,9.41
2017-11-16T14:39:42.420Z,9.41
2017-11-16T14:40:52.244Z,9.32
2017-11-16T14:42:03.044Z,9.24
2017-11-16T14:43:13.153Z,9.32
2017-11-16T14:44:23.270Z,9.29
2017-11-16T14:45:33.203Z,9.32
2017-11-16T14:46:43.037Z,9.21
2017-11-16T14:47:53.095Z,9.17
2017-11-16T14:49:02.985Z,9.23
2017-11-16T14:50:13.081Z,9.19
2017-11-16T14:51:23.194Z,9.2
2017-11-16T14:52:33.295Z,9.14
2017-11-16T14:53:43.148Z,9.16
2017-11-16T14:54:52.993Z,9.08
2017-11-16T14:56:02.808Z,9.09
2017-11-16T14:57:12.675Z,9.01
2017-11-16T14:58:22.490Z,8.94
2017-11-16T14:59:32.585Z,8.94
2017-11-16T15:00:42.148Z,8.92
2017-11-16T15:01:51.732Z,9.04
2017-11-16T15:03:01.353Z,9
2017-11-16T15:04:10.900Z,9.01
2017-11-16T15:05:20.711Z,8.95
2017-11-16T15:06:30.531Z,8.98
2017-11-16T15:07:40.635Z,8.94
2017-11-16T15:08:50.774Z,9
2017-11-16T15:10:00.908Z,8.97
2017-11-16T15:11:11.010Z,8.95
2017-11-16T15:12:20.834Z,8.92
2017-11-16T15:13:30.687Z,8.97
2017-11-16T15:14:40.576Z,8.9
2017-11-16T15:15:50.680Z,8.9
2017-11-16T15:17:00.874Z,8.83
2017-11-16T15:18:10.478Z,8.89
2017-11-16T15:19:20.607Z,8.94
2017-11-16T15:20:29.885Z,8.76
2017-11-16T15:21:40.012Z,8.87
2017-11-16T15:22:50.126Z,8.89
2017-11-16T15:23:59.968Z,8.92
2017-11-16T15:25:10.090Z,8.92
2017-11-16T15:26:21.170Z,8.95
2017-11-16T15:27:31.253Z,8.94
2017-11-16T15:28:40.651Z,8.9
2017-11-16T15:29:50.476Z,8.89
2017-11-16T15:31:00.561Z,8.9
2017-11-16T15:32:10.383Z,8.94
2017-11-16T15:33:20.535Z,8.94
2017-11-16T15:34:30.370Z,8.97
2017-11-16T15:35:40.455Z,9.04
2017-11-16T15:36:50.554Z,8.95
2017-11-16T15:38:00.372Z,9
2017-11-16T15:39:09.945Z,8.92
2017-11-16T15:40:20.034Z,8.94
2017-11-16T15:41:30.176Z,8.95
2017-11-16T15:42:39.985Z,9
2017-11-16T15:43:50.082Z,8.83
2017-11-16T15:44:59.901Z,8.86
2017-11-16T15:46:09.844Z,8.86
2017-11-16T15:47:19.697Z,8.9
2017-11-16T15:48:29.533Z,8.92
2017-11-16T15:49:39.756Z,8.86
2017-11-16T15:50:49.853Z,8.95
2017-11-16T15:51:59.948Z,8.92
2017-11-16T15:53:11.185Z,8.9
2017-11-16T15:54:21.452Z,8.95
2017-11-16T15:55:32.443Z,8.8
2017-11-16T15:56:42.540Z,8.89
2017-11-16T15:57:52.368Z,8.92
2017-11-16T15:59:02.791Z,8.9
2017-11-16T16:00:12.622Z,8.85